Decoded Metar for LFRB (BREST in FRANCE) (IATA:BES) | Meteo·Mobile Aviation Weather
aviador You're here:

LFRB Decoded Metar

BREST in FRANCE
Report Time2019-04-20 11:00:00
UTC Time2019-04-20 11:12:43
Flight Rules vfr VFR
Wind050° at 14 kt
W.Decomp.*RWY 07: 13.4 kt HW 4.1 kt LCW
Visibility9999 m
Phenomena:N/A
Clouds:N/A
Expected CloudBase > 5,600 ft AGL from Temp-Dew spread
CeilingNone
Temp21°C (ISA +7)
Dew Point07°C (40% RH)
AAT15.2°C
QNH1028 hPa
Density Alt751 ft
Elevation338 ft
Report Wrong Elevation
Raw Report
METAR LFRB 201100Z AUTO 05014KT CAVOK 21/07 Q1028 NOSIG=

Extra information for LFRB:More info

Metar Taf Metar & Taf Last 4 Metars F.Rules Stats Wind Profile Meteogram Temp Stats Airport Information Weather charts Add Link Nearby VenuesMetar ALERT Operation Metar Decoded Social comments